Time;durP1;ratioP1;P1;durP2;ratioP2;P2;SDS_P1;SDS_P2;PMS_P1;PMS_P2;Temp;Humidity;BMP_temperature;BMP_pressure;BME280_temperature;BME280_humidity;BME280_pressure;Samples;Min_cycle;Max_cycle;Signal;HPM_P1;HPM_P2
2022/05/28 00:01:11;;;;;;;3.05;1.70;;;17.40;99.90;;;;;;5078319;28;20475;-96
2022/05/28 00:04:04;;;;;;;;;;;;;;;;;;;;;
2022/05/28 00:06:36;;;;;;;2.80;1.40;;;17.30;99.90;;;;;;5086341;28;20116;-96
2022/05/28 00:16:01;;;;;;;5.10;1.60;;;17.30;99.90;;;;;;5075542;28;20097;-95
2022/05/28 00:19:06;;;;;;;;;;;;;;;;;;;;;
2022/05/28 00:21:35;;;;;;;5.82;1.63;;;17.20;99.90;;;;;;5075961;28;20042;-95
2022/05/28 00:24:04;;;;;;;4.88;1.58;;;17.30;99.90;;;;;;5075405;28;20057;-94
2022/05/28 00:26:41;;;;;;;5.57;1.80;;;17.30;99.90;;;;;;5078637;28;20028;-95
2022/05/28 00:29:07;;;;;;;3.15;1.60;;;17.30;99.90;;;;;;5078245;28;20028;-94
2022/05/28 00:31:56;;;;;;;4.13;1.65;;;17.30;99.90;;;;;;5077401;28;20510;-95
2022/05/28 00:45:19;;;;;;;;;;;;;;;;;;;;;
2022/05/28 00:48:30;;;;;;;5.70;1.93;;;17.30;99.90;;;;;;5076391;28;20024;-95
2022/05/28 00:51:31;;;;;;;7.65;1.77;;;17.30;99.90;;;;;;5060686;28;20036;-95
2022/05/28 00:54:20;;;;;;;5.10;2.00;;;17.30;99.90;;;;;;5068799;28;20478;-95
2022/05/28 00:57:20;;;;;;;;;;;;;;;;;;;;;
2022/05/28 01:18:08;;;;;;;6.03;2.20;;;17.20;99.90;;;;;;4999951;28;20105;-96
2022/05/28 01:34:03;;;;;;;6.95;2.08;;;17.10;99.90;;;;;;5074762;28;20020;-95
2022/05/28 01:36:40;;;;;;;10.15;1.63;;;17.10;99.90;;;;;;5063770;28;20485;-95
2022/05/28 01:39:08;;;;;;;4.93;1.95;;;17.10;99.90;;;;;;5035763;28;20140;-95
2022/05/28 01:41:39;;;;;;;6.53;1.55;;;17.10;99.90;;;;;;5037684;28;20476;-95
2022/05/28 01:45:21;;;;;;;;;;;;;;;;;;;;;
2022/05/28 01:47:53;;;;;;;4.50;1.65;;;17.10;99.90;;;;;;5037755;28;20033;-96
2022/05/28 01:50:23;;;;;;;5.88;1.80;;;17.10;99.90;;;;;;5037427;28;20021;-96
2022/05/28 01:53:11;;;;;;;;;;;;;;;;;;;;;
2022/05/28 01:55:43;;;;;;;4.93;1.92;;;17.10;99.90;;;;;;5037676;28;20101;-96
2022/05/28 01:58:14;;;;;;;4.32;1.67;;;17.10;99.90;;;;;;5036061;28;20183;-95
2022/05/28 02:00:45;;;;;;;5.32;1.90;;;17.10;99.90;;;;;;5036997;28;20029;-95
2022/05/28 02:03:14;;;;;;;3.75;1.63;;;17.10;99.90;;;;;;5036671;28;20029;-95
2022/05/28 02:05:47;;;;;;;6.40;1.85;;;17.10;99.90;;;;;;5035693;28;20041;-96
2022/05/28 02:08:36;;;;;;;7.63;1.92;;;17.00;99.90;;;;;;5035738;28;20030;-95
2022/05/28 02:11:40;;;;;;;6.97;1.80;;;17.10;99.90;;;;;;5036184;28;20091;-96
2022/05/28 02:14:12;;;;;;;7.95;1.98;;;17.00;99.90;;;;;;5035593;28;20125;-96
2022/05/28 02:25:09;;;;;;;6.43;2.05;;;17.00;99.90;;;;;;5075054;28;20039;-96
2022/05/28 02:27:15;;;;;;;6.82;2.17;;;17.00;99.90;;;;;;5066923;28;20522;-96
2022/05/28 02:29:46;;;;;;;10.45;2.63;;;17.00;99.90;;;;;;5075636;28;20395;-96
2022/05/28 02:39:58;;;;;;;;;;;;;;;;;;;;;
2022/05/28 02:46:03;;;;;;;12.80;2.17;;;16.90;99.90;;;;;;5040532;28;20430;-96
2022/05/28 02:48:52;;;;;;;;;;;;;;;;;;;;;
2022/05/28 02:51:58;;;;;;;7.93;2.10;;;16.90;99.90;;;;;;5101859;28;20107;-96
2022/05/28 03:02:43;;;;;;;;;;;;;;;;;;;;;
2022/05/28 03:49:03;;;;;;;;;;;;;;;;;;;;;
2022/05/28 07:36:15;;;;;;;12.80;1.83;;;16.80;97.70;;;;;;985767;23;21123;-88
2022/05/28 07:38:44;;;;;;;11.68;1.77;;;16.80;95.10;;;;;;5011399;28;20054;-92
2022/05/28 07:41:13;;;;;;;5.40;1.33;;;16.50;94.80;;;;;;5023735;28;20038;-90
2022/05/28 07:43:38;;;;;;;4.90;1.42;;;16.40;95.20;;;;;;5025443;28;20026;-91
2022/05/28 07:46:14;;;;;;;8.43;1.40;;;16.40;95.40;;;;;;5024508;28;20167;-93
2022/05/28 07:48:40;;;;;;;7.28;1.58;;;16.50;95.60;;;;;;5023193;28;20076;-93
2022/05/28 07:51:08;;;;;;;6.20;1.35;;;16.60;95.50;;;;;;5021514;28;20021;-92
2022/05/28 07:53:35;;;;;;;8.30;1.52;;;16.60;95.30;;;;;;5020229;28;20022;-92
2022/05/28 07:56:02;;;;;;;5.22;1.50;;;16.70;95.40;;;;;;5017647;28;20034;-90
2022/05/28 07:58:28;;;;;;;8.20;1.48;;;16.70;95.30;;;;;;5018698;28;20037;-91
2022/05/28 08:00:54;;;;;;;10.85;1.27;;;16.60;93.80;;;;;;5022567;28;20026;-90
2022/05/28 08:03:20;;;;;;;6.85;1.45;;;16.50;94.10;;;;;;5016203;28;20044;-91
2022/05/28 08:05:48;;;;;;;7.68;1.20;;;16.60;94.30;;;;;;5017160;28;20398;-92
2022/05/28 08:08:15;;;;;;;5.78;1.20;;;16.60;94.20;;;;;;5017490;28;20061;-91
2022/05/28 08:10:41;;;;;;;6.15;1.10;;;16.70;94.50;;;;;;5018285;28;20424;-92
2022/05/28 08:13:09;;;;;;;7.85;1.10;;;16.70;94.40;;;;;;5018329;28;20028;-91
2022/05/28 08:15:37;;;;;;;8.93;1.63;;;16.70;94.30;;;;;;5017847;28;20543;-91
2022/05/28 08:18:04;;;;;;;7.10;1.30;;;16.80;94.20;;;;;;5018214;28;20026;-91
2022/05/28 08:23:14;;;;;;;4.30;1.40;;;16.90;94.50;;;;;;5021019;28;20041;-92
2022/05/28 08:25:40;;;;;;;4.57;1.00;;;16.90;94.50;;;;;;5021266;28;20033;-92
2022/05/28 08:28:11;;;;;;;3.22;0.90;;;16.90;94.50;;;;;;5021698;28;20021;-91
2022/05/28 08:30:38;;;;;;;6.45;1.20;;;17.00;94.50;;;;;;5020694;28;20045;-88
2022/05/28 08:33:04;;;;;;;8.45;1.40;;;17.00;94.50;;;;;;5017917;28;20030;-92
2022/05/28 08:35:30;;;;;;;10.82;1.40;;;17.00;91.10;;;;;;5019207;28;20025;-91
2022/05/28 08:37:56;;;;;;;9.10;1.75;;;16.80;92.00;;;;;;5017408;28;20046;-92
2022/05/28 08:40:23;;;;;;;13.52;1.33;;;16.80;92.20;;;;;;5016043;28;20025;-91
2022/05/28 08:42:50;;;;;;;5.95;1.35;;;16.90;92.60;;;;;;5017099;28;20444;-91
2022/05/28 08:45:17;;;;;;;9.85;1.00;;;16.90;92.60;;;;;;5017561;28;20030;-92
2022/05/28 08:47:47;;;;;;;5.95;1.33;;;16.90;92.80;;;;;;5017335;28;20422;-92
2022/05/28 08:50:13;;;;;;;8.48;1.17;;;17.00;93.10;;;;;;5017357;28;20026;-91
2022/05/28 08:52:51;;;;;;;9.50;1.38;;;17.10;93.10;;;;;;5017351;28;20026;-91
2022/05/28 08:55:24;;;;;;;6.20;1.08;;;17.10;93.10;;;;;;5018239;28;20457;-91
2022/05/28 08:58:00;;;;;;;7.55;1.40;;;17.20;93.30;;;;;;5017816;28;20146;-90
2022/05/28 09:00:54;;;;;;;6.32;1.65;;;17.30;93.20;;;;;;5017440;28;20033;-91
2022/05/28 09:03:31;;;;;;;8.05;0.98;;;17.30;93.30;;;;;;5017594;28;20527;-91
2022/05/28 09:06:08;;;;;;;6.05;1.42;;;17.30;93.10;;;;;;5016472;28;20385;-92
2022/05/28 09:08:39;;;;;;;4.15;1.00;;;17.30;93.30;;;;;;5017148;28;20026;-91
2022/05/28 09:11:52;;;;;;;5.63;1.20;;;17.40;93.40;;;;;;5016359;28;20080;-92
2022/05/28 09:14:29;;;;;;;5.75;1.17;;;17.40;93.40;;;;;;5011465;28;20478;-92
2022/05/28 09:17:02;;;;;;;7.68;1.20;;;17.40;93.40;;;;;;5016144;28;20022;-92
2022/05/28 09:19:33;;;;;;;4.72;1.10;;;17.50;93.40;;;;;;5016147;28;20113;-91
2022/05/28 09:21:59;;;;;;;4.68;0.93;;;17.40;93.40;;;;;;5016117;28;20037;-92
2022/05/28 09:24:28;;;;;;;4.88;1.30;;;17.50;93.50;;;;;;5015586;28;20026;-91
2022/05/28 09:26:59;;;;;;;3.85;1.08;;;17.50;93.50;;;;;;5017399;28;20373;-92
2022/05/28 09:29:51;;;;;;;7.60;1.48;;;17.50;93.40;;;;;;5017479;28;20030;-91
2022/05/28 09:32:28;;;;;;;5.20;1.33;;;17.50;93.50;;;;;;5015962;28;20026;-91
2022/05/28 09:35:21;;;;;;;3.92;1.10;;;17.50;93.60;;;;;;5016321;28;20022;-82
2022/05/28 09:37:53;;;;;;;16.33;1.52;;;17.60;91.80;;;;;;5015656;28;20038;-91
2022/05/28 09:40:33;;;;;;;9.23;1.60;;;17.60;90.20;;;;;;5017318;28;20022;-92
2022/05/28 09:43:27;;;;;;;11.65;1.55;;;17.40;90.40;;;;;;5016473;28;20052;-92
2022/05/28 09:46:01;;;;;;;11.93;1.30;;;17.40;90.80;;;;;;5016128;28;20029;-93
2022/05/28 09:48:28;;;;;;;7.25;1.60;;;17.50;91.10;;;;;;5016468;28;20762;-91
2022/05/28 09:50:55;;;;;;;6.07;0.93;;;17.50;91.50;;;;;;5015611;28;20030;-92
2022/05/28 09:56:29;;;;;;;5.07;1.05;;;17.60;91.60;;;;;;5017215;28;20037;-92
2022/05/28 09:58:54;;;;;;;6.65;1.38;;;17.50;91.80;;;;;;5015100;28;20117;-91
2022/05/28 10:01:26;;;;;;;9.77;1.63;;;17.60;91.80;;;;;;5015510;28;20061;-90
2022/05/28 10:06:47;;;;;;;4.53;1.10;;;17.60;92.10;;;;;;5016795;28;20093;-91
2022/05/28 10:09:29;;;;;;;12.57;1.20;;;17.60;92.20;;;;;;5015063;28;20496;-91
2022/05/28 10:11:59;;;;;;;4.90;1.20;;;17.70;92.30;;;;;;5015773;28;20400;-92
2022/05/28 10:14:29;;;;;;;5.18;1.48;;;17.70;92.30;;;;;;5015638;28;20030;-90
2022/05/28 10:16:58;;;;;;;5.38;1.02;;;17.70;92.30;;;;;;5016039;28;20052;-91
2022/05/28 10:19:33;;;;;;;7.07;1.25;;;17.70;92.10;;;;;;5015642;28;20022;-92
2022/05/28 10:22:03;;;;;;;11.40;1.35;;;17.70;92.30;;;;;;5016261;28;20032;-92
2022/05/28 10:24:40;;;;;;;3.75;0.90;;;17.70;92.20;;;;;;5015332;28;20128;-92
2022/05/28 10:27:20;;;;;;;4.55;1.20;;;17.80;92.30;;;;;;5016122;28;20033;-92
2022/05/28 10:29:49;;;;;;;4.13;1.13;;;17.80;92.30;;;;;;5015201;28;20022;-92
2022/05/28 10:32:42;;;;;;;4.95;0.85;;;17.80;92.40;;;;;;5015347;28;20022;-92
2022/05/28 10:35:12;;;;;;;4.82;0.90;;;17.80;92.50;;;;;;5005494;28;20037;-92
2022/05/28 10:37:38;;;;;;;5.32;1.20;;;17.90;92.40;;;;;;5015734;28;20063;-91
2022/05/28 10:40:15;;;;;;;3.97;1.13;;;17.90;92.40;;;;;;5015806;28;20069;-90
2022/05/28 10:42:41;;;;;;;2.80;0.98;;;17.90;92.20;;;;;;5015988;28;20139;-90
2022/05/28 10:45:08;;;;;;;4.80;1.05;;;17.90;92.40;;;;;;5015602;28;20052;-91
2022/05/28 10:48:11;;;;;;;5.28;1.25;;;17.90;92.40;;;;;;5014658;28;20018;-91
2022/05/28 10:50:51;;;;;;;4.32;1.08;;;17.90;92.30;;;;;;5016431;28;20061;-91
2022/05/28 10:53:53;;;;;;;3.97;1.05;;;17.90;92.30;;;;;;5014929;28;20425;-91
2022/05/28 10:56:39;;;;;;;6.35;1.17;;;17.90;92.20;;;;;;5014051;28;20500;-93
2022/05/28 10:59:10;;;;;;;4.95;0.80;;;18.00;91.90;;;;;;5000368;28;20041;-91
2022/05/28 11:01:44;;;;;;;2.95;0.90;;;17.90;92.00;;;;;;5014276;28;20072;-92
2022/05/28 11:04:34;;;;;;;5.28;1.15;;;17.90;92.30;;;;;;5014678;28;20084;-92
2022/05/28 11:07:22;;;;;;;5.60;1.15;;;17.90;92.20;;;;;;5016051;28;20512;-92
2022/05/28 11:10:09;;;;;;;5.43;1.13;;;17.90;92.40;;;;;;5015237;28;20022;-92
2022/05/28 11:13:23;;;;;;;3.08;0.98;;;17.80;92.60;;;;;;5015207;28;20022;-93
2022/05/28 11:16:01;;;;;;;2.83;0.97;;;17.80;92.70;;;;;;4942964;28;20095;-92
2022/05/28 11:18:39;;;;;;;3.83;0.90;;;17.80;92.70;;;;;;5015009;28;20272;-92
2022/05/28 11:21:35;;;;;;;2.60;0.85;;;17.70;92.70;;;;;;5015102;28;20473;-92
2022/05/28 11:24:30;;;;;;;3.00;0.93;;;17.70;92.70;;;;;;5014528;28;20036;-91
2022/05/28 11:27:12;;;;;;;4.72;1.30;;;17.70;92.70;;;;;;5014343;28;20124;-91
2022/05/28 11:29:53;;;;;;;4.10;1.13;;;17.70;92.70;;;;;;5015263;28;20026;-92
2022/05/28 11:32:27;;;;;;;4.65;0.90;;;17.70;92.70;;;;;;5015591;28;20484;-91
2022/05/28 11:35:04;;;;;;;4.78;1.00;;;17.80;92.70;;;;;;5015385;28;20037;-91
2022/05/28 11:37:36;;;;;;;4.95;1.10;;;17.80;92.70;;;;;;5014703;28;20389;-91
2022/05/28 11:40:09;;;;;;;4.78;1.00;;;17.80;92.60;;;;;;5014610;28;20061;-91
2022/05/28 11:42:34;;;;;;;2.83;0.82;;;17.80;92.60;;;;;;5014448;28;20030;-91
2022/05/28 11:45:05;;;;;;;6.28;1.20;;;17.90;92.70;;;;;;5013984;28;20496;-92
2022/05/28 11:47:53;;;;;;;5.45;1.05;;;17.90;92.10;;;;;;5014461;28;20029;-86
2022/05/28 11:53:33;;;;;;;10.25;1.20;;;18.10;89.90;;;;;;5016076;28;20436;-92
2022/05/28 11:56:06;;;;;;;9.70;1.10;;;18.10;89.90;;;;;;5014371;28;20030;-92
2022/05/28 11:58:46;;;;;;;5.45;1.10;;;18.10;90.20;;;;;;5017884;28;20034;-90
2022/05/28 12:01:20;;;;;;;5.90;1.13;;;18.10;90.20;;;;;;5019132;28;20030;-92
2022/05/28 12:03:46;;;;;;;3.70;0.98;;;18.20;90.00;;;;;;5018941;28;20033;-92
2022/05/28 12:06:26;;;;;;;7.05;1.38;;;18.20;90.00;;;;;;5018095;28;20083;-92
2022/05/28 12:09:20;;;;;;;4.72;1.00;;;18.30;90.00;;;;;;5018228;28;20049;-92
2022/05/28 12:11:59;;;;;;;4.93;1.10;;;18.30;90.10;;;;;;5018223;28;20022;-93
2022/05/28 12:14:31;;;;;;;4.50;1.20;;;18.40;90.30;;;;;;5018091;28;20493;-92
2022/05/28 12:17:24;;;;;;;4.63;1.23;;;18.50;90.30;;;;;;5017854;28;20037;-93
2022/05/28 12:19:51;;;;;;;5.30;1.10;;;18.50;90.10;;;;;;5018549;28;20026;-93
2022/05/28 12:22:39;;;;;;;3.72;1.00;;;18.50;90.40;;;;;;5017566;28;20026;-92
2022/05/28 12:25:16;;;;;;;3.45;1.00;;;18.50;90.30;;;;;;5016955;28;20512;-92
2022/05/28 12:27:53;;;;;;;4.38;0.82;;;18.50;90.30;;;;;;5016616;28;20041;-91
2022/05/28 12:30:46;;;;;;;5.28;1.05;;;18.50;90.30;;;;;;5017104;28;20027;-92
2022/05/28 12:33:17;;;;;;;4.32;1.00;;;18.60;90.40;;;;;;5006807;28;20567;-93
2022/05/28 12:35:52;;;;;;;4.43;1.10;;;18.70;90.30;;;;;;5017514;28;20068;-93
2022/05/28 12:38:39;;;;;;;4.57;0.93;;;18.70;90.20;;;;;;5017624;28;20056;-93
2022/05/28 12:41:05;;;;;;;3.47;1.00;;;18.70;90.00;;;;;;5016750;28;20025;-91
2022/05/28 12:43:35;;;;;;;2.83;0.93;;;18.80;90.10;;;;;;5017725;28;20044;-91
2022/05/28 12:46:18;;;;;;;3.75;1.02;;;18.80;90.00;;;;;;5017947;28;20022;-93
2022/05/28 12:48:44;;;;;;;2.42;0.80;;;18.80;90.00;;;;;;5018230;28;20116;-93
2022/05/28 12:51:19;;;;;;;4.07;1.20;;;18.90;90.00;;;;;;5017762;28;20026;-93
2022/05/28 12:53:58;;;;;;;3.42;0.90;;;18.90;90.00;;;;;;5017976;28;20029;-93
2022/05/28 12:56:31;;;;;;;4.65;0.88;;;18.90;90.00;;;;;;5017905;28;20040;-93
2022/05/28 12:59:32;;;;;;;3.50;0.95;;;18.90;90.10;;;;;;5017764;28;20029;-94
2022/05/28 13:02:15;;;;;;;2.70;0.70;;;18.90;90.20;;;;;;5000803;28;20540;-93
2022/05/28 13:04:47;;;;;;;2.30;0.98;;;18.80;90.00;;;;;;5017438;28;20049;-92
2022/05/28 13:07:27;;;;;;;8.55;1.23;;;18.80;90.00;;;;;;5017426;28;20484;-93
2022/05/28 13:10:06;;;;;;;2.47;0.90;;;18.70;90.50;;;;;;5015149;28;20026;-93
2022/05/28 13:13:20;;;;;;;5.57;0.90;;;18.60;90.20;;;;;;5017297;28;20429;-92
2022/05/28 13:16:10;;;;;;;5.43;1.02;;;18.60;90.60;;;;;;4943311;28;20030;-93
2022/05/28 13:18:45;;;;;;;4.80;1.25;;;18.60;90.80;;;;;;5017158;28;20022;-92
2022/05/28 13:21:28;;;;;;;2.65;0.93;;;18.70;90.40;;;;;;5017289;28;20062;-94
2022/05/28 13:23:57;;;;;;;3.03;0.80;;;18.70;90.10;;;;;;5017671;28;20022;-92
2022/05/28 13:26:50;;;;;;;4.22;1.10;;;18.70;90.10;;;;;;5016462;28;20030;-92
2022/05/28 13:29:37;;;;;;;6.28;1.25;;;18.70;89.90;;;;;;5017964;28;20019;-93
2022/05/28 13:32:34;;;;;;;5.22;1.40;;;18.60;87.70;;;;;;5017124;28;20026;-94
2022/05/28 13:35:12;;;;;;;3.38;1.15;;;18.40;88.90;;;;;;4977041;28;20041;-93
2022/05/28 13:37:42;;;;;;;3.47;1.00;;;18.40;88.80;;;;;;5016359;28;20497;-93
2022/05/28 13:40:16;;;;;;;4.80;1.17;;;18.30;89.50;;;;;;5016142;28;20034;-93
2022/05/28 13:42:42;;;;;;;4.70;1.27;;;18.40;89.40;;;;;;5016330;28;20018;-93
2022/05/28 13:45:09;;;;;;;3.90;1.02;;;18.60;88.50;;;;;;5016996;28;20041;-93
2022/05/28 13:47:38;;;;;;;5.72;1.27;;;18.60;89.00;;;;;;5016282;28;20166;-94
2022/05/28 13:50:05;;;;;;;2.45;0.90;;;18.70;89.10;;;;;;5016204;28;20022;-93
2022/05/28 13:52:33;;;;;;;4.90;1.13;;;18.60;89.50;;;;;;5016413;28;20026;-93
2022/05/28 13:55:03;;;;;;;6.85;1.25;;;18.50;89.90;;;;;;5016183;28;20077;-93
2022/05/28 13:57:45;;;;;;;5.85;1.02;;;18.50;89.80;;;;;;5016171;28;20022;-93
2022/05/28 14:00:20;;;;;;;2.22;1.00;;;18.60;90.00;;;;;;5015876;28;20022;-93
2022/05/28 14:03:00;;;;;;;4.40;1.30;;;18.60;89.60;;;;;;5015911;28;20026;-93
2022/05/28 14:05:30;;;;;;;2.63;0.93;;;18.70;89.70;;;;;;5015927;28;20022;-93
2022/05/28 14:08:03;;;;;;;3.50;1.00;;;18.90;89.20;;;;;;5016140;28;20030;-93
2022/05/28 14:10:35;;;;;;;4.57;1.25;;;19.00;89.00;;;;;;5015765;28;20010;-93
2022/05/28 14:13:00;;;;;;;3.42;0.98;;;19.00;89.30;;;;;;5015852;28;20418;-94
2022/05/28 14:15:30;;;;;;;5.13;1.10;;;19.10;89.30;;;;;;5014725;28;20098;-93
2022/05/28 14:17:56;;;;;;;2.97;0.90;;;19.20;89.00;;;;;;5014675;28;20436;-92
2022/05/28 14:20:32;;;;;;;6.68;1.30;;;19.40;88.30;;;;;;5014494;28;20026;-94
2022/05/28 14:22:58;;;;;;;4.15;1.00;;;19.50;88.20;;;;;;5014760;28;20084;-93
2022/05/28 14:25:28;;;;;;;3.58;0.90;;;19.60;87.90;;;;;;5014822;28;20485;-92
2022/05/28 14:27:59;;;;;;;5.05;1.20;;;19.60;87.90;;;;;;5014773;28;20065;-93
2022/05/28 14:30:29;;;;;;;4.20;0.90;;;19.50;87.90;;;;;;5015876;28;20018;-93
2022/05/28 14:32:55;;;;;;;3.63;0.90;;;19.40;88.10;;;;;;5016814;28;20030;-94
2022/05/28 14:35:40;;;;;;;3.33;0.98;;;19.20;88.70;;;;;;5016896;28;20047;-93
2022/05/28 14:38:07;;;;;;;2.95;0.88;;;19.10;89.10;;;;;;5015577;28;20050;-93
2022/05/28 14:40:35;;;;;;;2.53;1.10;;;19.00;89.40;;;;;;5014788;28;20439;-93
2022/05/28 14:43:03;;;;;;;4.63;1.20;;;19.00;89.10;;;;;;5014973;28;20041;-88
2022/05/28 14:45:39;;;;;;;3.80;1.23;;;19.00;89.80;;;;;;5013615;28;20053;-90
2022/05/28 14:48:12;;;;;;;4.82;1.00;;;18.90;90.30;;;;;;5013604;28;20470;-88
2022/05/28 14:50:53;;;;;;;3.38;1.10;;;18.90;90.00;;;;;;5015723;28;20022;-85
2022/05/28 14:53:37;;;;;;;2.92;1.08;;;18.90;89.60;;;;;;5014614;28;20026;-90
2022/05/28 14:56:12;;;;;;;3.25;1.05;;;19.00;89.60;;;;;;5013851;28;20109;-86
2022/05/28 14:58:44;;;;;;;2.97;0.70;;;19.00;89.50;;;;;;5013959;28;20052;-89
2022/05/28 15:01:11;;;;;;;6.30;1.25;;;19.10;89.50;;;;;;5013642;28;20021;-89
2022/05/28 15:03:38;;;;;;;2.65;0.88;;;19.20;89.40;;;;;;5013380;28;20030;-89
2022/05/28 15:06:17;;;;;;;4.55;1.02;;;19.20;89.20;;;;;;5013978;28;20405;-89
2022/05/28 15:08:56;;;;;;;2.72;0.82;;;19.20;89.20;;;;;;5014116;28;20022;-89
2022/05/28 15:11:33;;;;;;;1.83;0.77;;;19.30;89.10;;;;;;5013853;28;20081;-89
2022/05/28 15:14:12;;;;;;;3.75;1.17;;;19.30;89.10;;;;;;5013747;28;20033;-89
2022/05/28 15:16:41;;;;;;;1.95;0.63;;;19.40;88.80;;;;;;5013515;28;20033;-89
2022/05/28 15:19:08;;;;;;;2.25;0.70;;;19.40;88.50;;;;;;5013356;28;20496;-89
2022/05/28 15:21:35;;;;;;;2.10;0.88;;;19.30;89.50;;;;;;5013608;28;20026;-89
2022/05/28 15:24:03;;;;;;;2.70;0.70;;;19.20;89.10;;;;;;5014215;28;20026;-89
2022/05/28 15:26:30;;;;;;;1.85;0.90;;;19.10;89.60;;;;;;5013942;28;20022;-89
2022/05/28 15:28:55;;;;;;;2.88;0.80;;;19.00;89.80;;;;;;5013723;28;20025;-89
2022/05/28 15:31:22;;;;;;;2.28;0.98;;;18.90;90.00;;;;;;5014509;28;20089;-89
2022/05/28 15:33:49;;;;;;;2.25;0.90;;;18.90;90.10;;;;;;5013025;28;20544;-90
2022/05/28 15:39:00;;;;;;;3.95;0.85;;;19.00;90.10;;;;;;5014739;28;20104;-89
2022/05/28 15:41:26;;;;;;;2.30;0.93;;;19.10;90.00;;;;;;5013172;28;20473;-89
2022/05/28 15:43:52;;;;;;;3.28;1.00;;;19.10;90.00;;;;;;5013180;28;20057;-90
2022/05/28 15:46:18;;;;;;;2.90;1.00;;;19.20;89.80;;;;;;5013591;28;20018;-89
2022/05/28 15:48:44;;;;;;;2.90;0.90;;;19.20;89.70;;;;;;5013751;28;20025;-89
2022/05/28 15:51:11;;;;;;;3.00;0.90;;;19.10;89.80;;;;;;5013226;28;20026;-89
2022/05/28 15:53:37;;;;;;;4.38;1.00;;;19.20;90.00;;;;;;5014360;28;20072;-89
2022/05/28 15:56:03;;;;;;;2.28;0.70;;;19.10;89.60;;;;;;5013136;28;20117;-89
2022/05/28 15:58:33;;;;;;;3.53;0.90;;;19.10;89.40;;;;;;5013439;28;20037;-89
2022/05/28 16:01:14;;;;;;;1.85;0.73;;;19.00;89.30;;;;;;5013602;28;20026;-89
2022/05/28 16:03:40;;;;;;;2.25;0.70;;;18.90;89.90;;;;;;5013076;28;20053;-89
2022/05/28 16:06:08;;;;;;;1.27;0.80;;;18.80;90.00;;;;;;5012989;28;20018;-89
2022/05/28 16:08:40;;;;;;;3.53;0.95;;;18.80;90.30;;;;;;5013242;28;20021;-88
2022/05/28 16:11:13;;;;;;;3.10;0.70;;;18.70;90.40;;;;;;5012840;28;20022;-88
2022/05/28 16:13:40;;;;;;;2.47;0.80;;;18.60;90.40;;;;;;5013044;28;20430;-88
2022/05/28 16:16:06;;;;;;;2.90;0.90;;;18.60;90.30;;;;;;5012602;28;20481;-89
2022/05/28 16:18:32;;;;;;;1.45;0.73;;;18.50;90.40;;;;;;5013161;28;20037;-89
2022/05/28 16:20:57;;;;;;;2.03;0.70;;;18.50;90.40;;;;;;5012936;28;20084;-89
2022/05/28 16:23:23;;;;;;;3.40;1.02;;;18.50;90.30;;;;;;5012236;28;20060;-89
2022/05/28 16:25:49;;;;;;;3.25;1.00;;;18.50;90.50;;;;;;5012985;28;20026;-89
2022/05/28 16:28:15;;;;;;;2.92;0.98;;;18.50;90.50;;;;;;5012859;28;20022;-89
2022/05/28 16:30:41;;;;;;;2.20;0.82;;;18.40;90.40;;;;;;5013070;28;20113;-88
2022/05/28 16:33:07;;;;;;;3.83;1.00;;;18.40;90.20;;;;;;5013219;28;20116;-89
2022/05/28 16:35:34;;;;;;;3.22;1.05;;;18.40;90.40;;;;;;5013334;28;20030;-88
2022/05/28 16:37:59;;;;;;;2.88;0.88;;;18.40;90.30;;;;;;5012841;28;20056;-89
2022/05/28 16:40:26;;;;;;;2.13;0.70;;;18.30;90.50;;;;;;5012404;28;20026;-89
2022/05/28 16:42:52;;;;;;;2.53;0.60;;;18.30;90.40;;;;;;4996947;28;20030;-89
2022/05/28 16:45:18;;;;;;;3.00;0.82;;;18.30;90.60;;;;;;5016479;28;20385;-88
2022/05/28 16:47:44;;;;;;;3.53;0.70;;;18.30;90.70;;;;;;5016134;28;20026;-88
2022/05/28 16:50:10;;;;;;;2.80;0.82;;;18.30;90.50;;;;;;5016367;28;20049;-89
2022/05/28 16:52:37;;;;;;;3.10;1.00;;;18.30;90.70;;;;;;5016035;28;20054;-88
2022/05/28 16:55:03;;;;;;;2.33;0.80;;;18.30;90.60;;;;;;5015703;28;20429;-88
2022/05/28 16:57:29;;;;;;;2.75;0.82;;;18.30;90.60;;;;;;5015772;28;20389;-89
2022/05/28 17:00:04;;;;;;;3.25;0.98;;;18.30;90.50;;;;;;5016423;28;20025;-89
2022/05/28 17:02:30;;;;;;;4.05;1.00;;;18.30;90.70;;;;;;5017428;28;20030;-88
2022/05/28 17:04:55;;;;;;;3.60;0.82;;;18.20;90.50;;;;;;5016153;28;20037;-88
2022/05/28 17:07:21;;;;;;;4.10;1.00;;;18.20;90.70;;;;;;5016213;28;20049;-89
2022/05/28 17:09:48;;;;;;;3.88;1.27;;;18.30;90.60;;;;;;5016228;28;20113;-88
2022/05/28 17:12:15;;;;;;;2.72;0.82;;;18.30;90.70;;;;;;5016131;28;20053;-88
2022/05/28 17:14:41;;;;;;;3.38;0.90;;;18.30;90.80;;;;;;5016022;28;20034;-88
2022/05/28 17:17:06;;;;;;;3.45;0.98;;;18.30;90.80;;;;;;5016663;28;20492;-89
2022/05/28 17:19:34;;;;;;;2.35;1.00;;;18.20;90.80;;;;;;5016810;28;20117;-88
2022/05/28 17:22:00;;;;;;;3.83;1.00;;;18.20;90.60;;;;;;5015993;28;20022;-88
2022/05/28 17:24:28;;;;;;;2.83;0.95;;;18.20;90.90;;;;;;5015792;28;20101;-88
2022/05/28 17:26:59;;;;;;;3.95;0.90;;;18.20;90.70;;;;;;5015864;28;20496;-89
2022/05/28 17:29:27;;;;;;;4.43;1.05;;;18.30;90.90;;;;;;5015797;28;20061;-88
2022/05/28 17:31:52;;;;;;;3.60;1.05;;;18.20;90.90;;;;;;5015824;28;20029;-88
2022/05/28 17:34:18;;;;;;;2.40;0.80;;;18.20;91.00;;;;;;5015799;28;20034;-88
2022/05/28 17:36:44;;;;;;;2.25;1.00;;;18.20;90.90;;;;;;5013252;28;20026;-88
2022/05/28 17:39:10;;;;;;;5.07;0.80;;;18.20;90.80;;;;;;4980844;28;20374;-89
2022/05/28 17:41:36;;;;;;;1.85;0.80;;;18.20;90.50;;;;;;4979822;28;20030;-88
2022/05/28 17:44:02;;;;;;;3.47;0.95;;;18.20;90.70;;;;;;4980123;28;20041;-88
2022/05/28 17:46:28;;;;;;;2.72;0.90;;;18.20;91.00;;;;;;4980396;28;20026;-88
2022/05/28 17:48:54;;;;;;;2.00;0.98;;;18.10;90.90;;;;;;4980521;28;20033;-88
2022/05/28 17:51:23;;;;;;;6.07;1.00;;;18.10;90.90;;;;;;4978802;28;20018;-88
2022/05/28 17:53:49;;;;;;;3.60;1.10;;;18.10;90.90;;;;;;4979048;28;20049;-88
2022/05/28 17:56:15;;;;;;;3.00;0.70;;;18.10;91.00;;;;;;4978924;28;20034;-88
2022/05/28 17:58:41;;;;;;;3.42;1.00;;;18.10;91.00;;;;;;4979402;28;20067;-88
2022/05/28 18:01:09;;;;;;;3.33;0.95;;;18.10;90.90;;;;;;4979473;28;20414;-88
2022/05/28 18:03:35;;;;;;;2.22;0.90;;;18.10;91.00;;;;;;4978903;28;20026;-87
2022/05/28 18:06:01;;;;;;;2.65;1.17;;;18.10;91.00;;;;;;4978470;28;20088;-88
2022/05/28 18:08:27;;;;;;;2.50;0.82;;;18.10;90.90;;;;;;4979534;28;20022;-88
2022/05/28 18:10:54;;;;;;;4.65;0.90;;;18.10;90.90;;;;;;4979041;28;20441;-88
2022/05/28 18:13:20;;;;;;;3.88;1.20;;;18.10;90.80;;;;;;4978483;28;20022;-88
2022/05/28 18:15:48;;;;;;;4.00;1.00;;;18.00;90.80;;;;;;4978768;28;20434;-88
2022/05/28 18:18:20;;;;;;;4.68;1.23;;;18.00;90.70;;;;;;4979033;28;20028;-88
2022/05/28 18:20:49;;;;;;;5.78;1.00;;;18.00;90.90;;;;;;4978811;28;20023;-88
2022/05/28 18:23:15;;;;;;;3.90;1.00;;;18.00;90.90;;;;;;4978465;28;20084;-88
2022/05/28 18:25:47;;;;;;;2.58;0.90;;;18.00;91.00;;;;;;4978820;28;20406;-88
2022/05/28 18:28:14;;;;;;;3.70;1.25;;;18.00;90.90;;;;;;4978394;28;20026;-88
2022/05/28 18:30:41;;;;;;;3.65;1.25;;;18.00;91.00;;;;;;4978265;28;20398;-88
2022/05/28 18:33:07;;;;;;;4.57;1.00;;;18.00;91.00;;;;;;4978226;28;20080;-88
2022/05/28 18:35:35;;;;;;;6.43;1.27;;;18.00;91.00;;;;;;4978090;28;20080;-88
2022/05/28 18:38:02;;;;;;;7.35;1.52;;;18.00;91.00;;;;;;4998830;28;20556;-88
2022/05/28 18:40:34;;;;;;;7.65;1.52;;;17.90;90.90;;;;;;5013799;28;20029;-88
2022/05/28 18:43:01;;;;;;;5.50;1.27;;;18.00;90.90;;;;;;5013115;28;20055;-88
2022/05/28 18:45:28;;;;;;;3.25;1.20;;;17.90;91.00;;;;;;5013528;28;20061;-88
2022/05/28 18:47:54;;;;;;;4.68;1.92;;;18.00;91.00;;;;;;5014516;28;20507;-88
2022/05/28 18:50:21;;;;;;;4.20;1.70;;;18.00;91.00;;;;;;5014479;28;20105;-88
2022/05/28 18:52:48;;;;;;;6.97;2.42;;;18.00;91.00;;;;;;5014406;28;20076;-88
2022/05/28 18:55:15;;;;;;;6.38;2.88;;;18.00;90.90;;;;;;5013636;28;20064;-88
2022/05/28 18:57:45;;;;;;;5.88;2.08;;;18.00;90.90;;;;;;5014303;28;20022;-88
2022/05/28 19:00:12;;;;;;;6.40;2.38;;;17.90;91.00;;;;;;5014387;28;20054;-88
2022/05/28 19:02:38;;;;;;;7.80;2.35;;;17.90;91.00;;;;;;5015361;28;20060;-88
2022/05/28 19:05:05;;;;;;;4.82;1.65;;;17.90;91.00;;;;;;5013832;28;20061;-88
2022/05/28 19:07:33;;;;;;;3.85;1.55;;;17.90;91.00;;;;;;5013325;28;20030;-88
2022/05/28 19:10:07;;;;;;;4.40;1.40;;;17.90;91.00;;;;;;5013420;28;20026;-89
2022/05/28 19:12:37;;;;;;;5.40;1.98;;;17.90;91.10;;;;;;5013852;28;20049;-90
2022/05/28 19:15:08;;;;;;;4.05;1.25;;;17.90;91.00;;;;;;5013206;28;20033;-89
2022/05/28 19:17:33;;;;;;;5.25;1.60;;;17.90;91.00;;;;;;5013222;28;20052;-90
2022/05/28 19:19:59;;;;;;;4.22;1.42;;;17.90;91.00;;;;;;5012957;28;20117;-89
2022/05/28 19:22:25;;;;;;;3.35;1.50;;;17.90;90.90;;;;;;5013109;28;20022;-89
2022/05/28 19:27:42;;;;;;;2.85;1.52;;;17.80;90.90;;;;;;5015346;28;20053;-90
2022/05/28 19:30:08;;;;;;;3.92;1.50;;;17.80;90.90;;;;;;5014149;28;20033;-90
2022/05/28 19:32:40;;;;;;;5.00;1.55;;;17.80;90.90;;;;;;5014176;28;20021;-90